Time;durP1;ratioP1;P1;durP2;ratioP2;P2;SDS_P1;SDS_P2;PMS_P1;PMS_P2;Temp;Humidity;BMP_temperature;BMP_pressure;BME280_temperature;BME280_humidity;BME280_pressure;Samples;Min_cycle;Max_cycle;Signal;HPM_P1;HPM_P2
2022/08/16 00:01:17;;;;;;;8.88;7.57;;;18.80;99.90;;;;;;5030625;28;20083;-52
2022/08/16 00:03:44;;;;;;;10.65;7.78;;;18.70;99.90;;;;;;5027163;28;20427;-50
2022/08/16 00:06:10;;;;;;;12.27;8.20;;;18.60;99.90;;;;;;5030654;28;20060;-47
2022/08/16 00:08:36;;;;;;;14.70;8.57;;;18.60;99.90;;;;;;5029576;28;20052;-47
2022/08/16 00:11:05;;;;;;;11.60;9.00;;;18.60;99.90;;;;;;5021199;28;20095;-48
2022/08/16 00:13:32;;;;;;;11.57;8.90;;;18.60;99.90;;;;;;5030462;28;20100;-46
2022/08/16 00:15:58;;;;;;;15.52;9.88;;;18.70;99.90;;;;;;5017394;28;20029;-48
2022/08/16 00:18:23;;;;;;;13.52;9.48;;;18.70;99.90;;;;;;5029624;28;20441;-49
2022/08/16 00:20:49;;;;;;;13.38;10.07;;;18.70;99.90;;;;;;5030195;28;20099;-47
2022/08/16 00:23:15;;;;;;;11.65;9.80;;;18.70;99.90;;;;;;5029200;28;20384;-53
2022/08/16 00:25:41;;;;;;;15.65;9.75;;;18.70;99.90;;;;;;5030406;28;20026;-47
2022/08/16 00:28:07;;;;;;;12.43;10.18;;;18.80;99.90;;;;;;5030468;28;20029;-48
2022/08/16 00:30:33;;;;;;;14.82;11.00;;;18.80;99.90;;;;;;5030347;28;20036;-44
2022/08/16 00:33:00;;;;;;;12.50;9.98;;;18.80;99.90;;;;;;5030218;28;20033;-47
2022/08/16 00:35:33;;;;;;;15.77;10.60;;;18.70;99.90;;;;;;5030425;28;20054;-52
2022/08/16 00:38:02;;;;;;;11.93;9.93;;;18.60;99.90;;;;;;5030554;28;20026;-47
2022/08/16 00:40:38;;;;;;;11.57;9.90;;;18.60;99.90;;;;;;5029788;28;20500;-46
2022/08/16 00:43:09;;;;;;;11.65;10.05;;;18.50;99.90;;;;;;5030405;28;20160;-49
2022/08/16 00:45:49;;;;;;;12.05;10.75;;;18.50;99.90;;;;;;5030328;28;20022;-44
2022/08/16 00:48:15;;;;;;;11.60;9.98;;;18.50;99.90;;;;;;5033716;28;20036;-56
2022/08/16 00:50:42;;;;;;;15.48;10.30;;;18.50;99.90;;;;;;5033787;28;20013;-46
2022/08/16 00:53:11;;;;;;;14.50;11.35;;;18.60;99.90;;;;;;5033598;28;20013;-49
2022/08/16 00:55:39;;;;;;;15.90;11.50;;;18.70;99.90;;;;;;5030993;28;20106;-46
2022/08/16 00:58:08;;;;;;;16.60;12.35;;;18.80;99.90;;;;;;5033456;28;20148;-44
2022/08/16 01:00:34;;;;;;;13.60;12.02;;;18.80;99.90;;;;;;5033357;28;20091;-48
2022/08/16 01:03:04;;;;;;;15.32;12.25;;;18.80;99.90;;;;;;5033446;28;20041;-50
2022/08/16 01:05:31;;;;;;;13.32;11.82;;;18.80;99.90;;;;;;5033288;28;20026;-48
2022/08/16 01:07:57;;;;;;;14.55;11.13;;;18.70;99.90;;;;;;5033392;28;20428;-47
2022/08/16 01:10:26;;;;;;;14.38;10.88;;;18.60;99.90;;;;;;5033214;28;20085;-49
2022/08/16 01:12:52;;;;;;;12.52;11.23;;;18.60;99.90;;;;;;5033421;28;20036;-55
2022/08/16 01:15:18;;;;;;;12.38;11.13;;;18.60;99.90;;;;;;5033079;28;20385;-50
2022/08/16 01:17:46;;;;;;;14.20;12.05;;;18.60;99.90;;;;;;5033498;28;20100;-44
2022/08/16 01:20:14;;;;;;;20.42;14.00;;;18.60;99.90;;;;;;5033325;28;20423;-47
2022/08/16 01:23:02;;;;;;;16.15;13.75;;;18.60;99.90;;;;;;5032990;28;20120;-44
2022/08/16 01:25:35;;;;;;;15.38;12.60;;;18.60;99.90;;;;;;5032943;28;20429;-47
2022/08/16 01:28:05;;;;;;;16.95;13.27;;;18.60;99.90;;;;;;5033036;28;20025;-43
2022/08/16 01:30:35;;;;;;;16.30;13.85;;;18.60;99.90;;;;;;5033097;28;20472;-43
2022/08/16 01:33:03;;;;;;;17.67;14.88;;;18.50;99.90;;;;;;5032891;28;20072;-43
2022/08/16 01:35:33;;;;;;;15.52;13.55;;;18.50;99.90;;;;;;5032584;28;20032;-45
2022/08/16 01:38:34;;;;;;;15.68;13.43;;;18.50;99.90;;;;;;5032495;28;20040;-43
2022/08/16 01:41:13;;;;;;;18.67;13.35;;;18.60;99.90;;;;;;5032634;28;20507;-44
2022/08/16 01:43:40;;;;;;;;;;;18.60;99.90;;;;;;5033342;28;20022;-46
2022/08/16 01:46:16;;;;;;;18.63;15.27;;;18.60;99.90;;;;;;5032677;28;19917;-46
2022/08/16 01:48:42;;;;;;;18.20;14.05;;;18.60;99.90;;;;;;5032604;28;20017;-43
2022/08/16 01:51:08;;;;;;;20.08;14.10;;;18.60;99.90;;;;;;5032750;28;20028;-48
2022/08/16 01:53:34;;;;;;;17.55;13.30;;;18.60;99.90;;;;;;5032430;28;20513;-48
2022/08/16 01:56:00;;;;;;;17.25;14.68;;;18.50;99.90;;;;;;5032169;28;20108;-47
2022/08/16 01:58:26;;;;;;;18.77;15.15;;;18.50;99.90;;;;;;5031429;28;20071;-44
2022/08/16 02:00:52;;;;;;;16.92;14.25;;;18.50;99.90;;;;;;5030621;28;20071;-54
2022/08/16 02:03:18;;;;;;;18.23;15.07;;;18.40;99.90;;;;;;5032209;28;20029;-46
2022/08/16 02:05:44;;;;;;;18.25;15.27;;;18.40;99.90;;;;;;5032399;28;20156;-47
2022/08/16 02:08:10;;;;;;;16.25;14.20;;;18.40;99.90;;;;;;5024644;28;20088;-47
2022/08/16 02:10:37;;;;;;;15.77;13.80;;;18.40;99.90;;;;;;5029100;28;20048;-48
2022/08/16 02:13:06;;;;;;;16.05;13.25;;;18.40;99.90;;;;;;5032322;28;20067;-53
2022/08/16 02:15:34;;;;;;;15.70;11.90;;;18.50;99.90;;;;;;5032117;28;20500;-49
2022/08/16 02:18:00;;;;;;;17.38;13.43;;;18.50;99.90;;;;;;5032025;28;20073;-50
2022/08/16 02:20:28;;;;;;;12.77;11.45;;;18.50;99.90;;;;;;5031927;28;20072;-44
2022/08/16 02:22:59;;;;;;;16.55;12.82;;;18.40;99.90;;;;;;5032021;28;20029;-44
2022/08/16 02:25:26;;;;;;;15.07;13.45;;;18.40;99.90;;;;;;5031853;28;20116;-47
2022/08/16 02:27:52;;;;;;;19.25;14.02;;;18.30;99.90;;;;;;5031490;28;20033;-50
2022/08/16 02:30:22;;;;;;;19.13;13.98;;;18.30;99.90;;;;;;5031747;28;20096;-48
2022/08/16 02:32:48;;;;;;;18.25;13.45;;;18.20;99.90;;;;;;5031795;28;20021;-51
2022/08/16 02:35:14;;;;;;;14.82;13.32;;;18.30;99.90;;;;;;5030761;28;20476;-44
2022/08/16 02:37:40;;;;;;;14.95;12.30;;;18.30;99.90;;;;;;5031506;28;20683;-47
2022/08/16 02:40:07;;;;;;;14.80;12.02;;;18.30;99.90;;;;;;5031663;28;20025;-53
2022/08/16 02:42:33;;;;;;;15.82;12.73;;;18.20;99.90;;;;;;5031703;28;20116;-50
2022/08/16 02:44:58;;;;;;;12.63;11.13;;;18.20;99.90;;;;;;5029419;28;20113;-48
2022/08/16 02:47:24;;;;;;;14.63;11.93;;;18.20;99.90;;;;;;5026145;28;20029;-44
2022/08/16 02:49:50;;;;;;;14.82;12.57;;;18.10;99.90;;;;;;5031058;28;20029;-44
2022/08/16 02:52:16;;;;;;;15.57;13.02;;;18.00;99.90;;;;;;5031654;28;20018;-51
2022/08/16 02:54:42;;;;;;;17.15;14.00;;;18.00;99.90;;;;;;5031043;28;20018;-50
2022/08/16 02:57:08;;;;;;;14.50;12.98;;;17.90;99.90;;;;;;5031334;28;20070;-52
2022/08/16 02:59:33;;;;;;;16.50;12.45;;;17.90;99.90;;;;;;5031214;28;20387;-43
2022/08/16 03:01:59;;;;;;;16.67;12.50;;;17.80;99.90;;;;;;5030321;28;20084;-49
2022/08/16 03:04:25;;;;;;;17.27;12.77;;;17.70;99.90;;;;;;5031107;28;20044;-48
2022/08/16 03:06:51;;;;;;;14.25;11.68;;;17.70;99.90;;;;;;5031297;28;20477;-48
2022/08/16 03:09:17;;;;;;;15.63;12.95;;;17.70;99.90;;;;;;5030270;28;20041;-46
2022/08/16 03:11:43;;;;;;;17.15;14.32;;;17.70;99.90;;;;;;5031030;28;20041;-47
2022/08/16 03:14:10;;;;;;;20.23;14.95;;;17.70;99.90;;;;;;5031252;28;20032;-43
2022/08/16 03:16:36;;;;;;;17.42;14.20;;;17.70;99.90;;;;;;5031269;28;20065;-43
2022/08/16 03:19:01;;;;;;;16.23;14.15;;;17.70;99.90;;;;;;5030953;28;20034;-43
2022/08/16 03:21:28;;;;;;;18.48;14.88;;;17.70;99.90;;;;;;5031079;28;20045;-43
2022/08/16 03:23:53;;;;;;;20.75;15.15;;;17.70;99.90;;;;;;5030901;28;20018;-43
2022/08/16 03:26:20;;;;;;;19.20;13.27;;;17.80;99.90;;;;;;5030487;28;20047;-43
2022/08/16 03:28:45;;;;;;;15.27;13.40;;;17.80;99.90;;;;;;5030814;28;20473;-45
2022/08/16 03:31:11;;;;;;;14.77;13.10;;;17.80;99.90;;;;;;5030997;28;20029;-44
2022/08/16 03:33:37;;;;;;;19.60;14.07;;;17.80;99.90;;;;;;5031081;28;20029;-47
2022/08/16 03:36:05;;;;;;;18.10;16.15;;;17.70;99.90;;;;;;5030834;28;20022;-43
2022/08/16 03:38:32;;;;;;;17.92;15.57;;;17.60;99.90;;;;;;5030829;28;20505;-47
2022/08/16 03:40:59;;;;;;;18.58;15.57;;;17.50;99.90;;;;;;5030630;28;20062;-47
2022/08/16 03:43:26;;;;;;;18.90;15.45;;;17.40;99.90;;;;;;5030805;28;20110;-43
2022/08/16 03:45:56;;;;;;;20.75;15.80;;;17.40;99.90;;;;;;5030623;28;20026;-43
2022/08/16 03:48:22;;;;;;;;;;;17.50;99.90;;;;;;5026551;28;20488;-46
2022/08/16 03:50:48;;;;;;;17.83;14.55;;;17.50;99.90;;;;;;5025332;28;19935;-46
2022/08/16 03:53:14;;;;;;;16.88;14.02;;;17.60;99.90;;;;;;5030829;28;20014;-43
2022/08/16 03:55:40;;;;;;;16.05;13.93;;;17.60;99.90;;;;;;5029286;28;20720;-51
2022/08/16 03:58:06;;;;;;;15.07;12.82;;;17.60;99.90;;;;;;5030518;28;20021;-52
2022/08/16 04:00:32;;;;;;;17.70;12.85;;;17.70;99.90;;;;;;5022003;28;20030;-50
2022/08/16 04:03:05;;;;;;;15.70;12.57;;;17.70;99.90;;;;;;5030580;28;20030;-44
2022/08/16 04:05:32;;;;;;;16.23;11.32;;;17.70;99.90;;;;;;5030638;28;20030;-43
2022/08/16 04:07:58;;;;;;;13.90;12.43;;;17.70;99.90;;;;;;5030424;28;20399;-52
2022/08/16 04:10:23;;;;;;;14.90;11.52;;;17.70;99.90;;;;;;5025842;28;20045;-46
2022/08/16 04:12:49;;;;;;;17.00;13.02;;;17.70;99.90;;;;;;5030705;28;20029;-46
2022/08/16 04:15:16;;;;;;;14.52;12.93;;;17.70;99.90;;;;;;5030478;28;20060;-43
2022/08/16 04:17:42;;;;;;;14.48;12.80;;;17.70;99.90;;;;;;5030689;28;20033;-46
2022/08/16 04:20:10;;;;;;;15.07;12.57;;;17.70;99.90;;;;;;5031689;28;20472;-44
2022/08/16 04:22:36;;;;;;;16.40;13.00;;;17.70;99.90;;;;;;5034417;28;20528;-44
2022/08/16 04:25:04;;;;;;;15.15;12.93;;;17.70;99.90;;;;;;5033994;28;20113;-43
2022/08/16 04:27:30;;;;;;;16.15;12.60;;;17.60;99.90;;;;;;5032965;28;20373;-43
2022/08/16 04:29:56;;;;;;;13.10;11.43;;;17.70;99.90;;;;;;5034386;28;20044;-43
2022/08/16 04:32:22;;;;;;;16.45;12.20;;;17.70;99.90;;;;;;5032760;28;20374;-43
2022/08/16 04:34:48;;;;;;;15.38;12.13;;;17.70;99.90;;;;;;5034100;28;20064;-43
2022/08/16 04:37:14;;;;;;;13.88;12.32;;;17.60;99.90;;;;;;5033921;28;20107;-43
2022/08/16 04:39:39;;;;;;;13.93;11.52;;;17.60;99.90;;;;;;5034045;28;20041;-43
2022/08/16 04:42:05;;;;;;;13.65;11.63;;;17.60;99.90;;;;;;5033792;28;20703;-44
2022/08/16 04:44:31;;;;;;;17.38;12.38;;;17.60;99.90;;;;;;5032345;28;20017;-46
2022/08/16 04:46:57;;;;;;;16.25;13.98;;;17.60;99.90;;;;;;5033806;28;20155;-52
2022/08/16 04:49:23;;;;;;;15.93;14.07;;;17.60;99.90;;;;;;5033459;28;20468;-44
2022/08/16 04:51:50;;;;;;;19.80;15.95;;;17.60;99.90;;;;;;5033599;28;20036;-45
2022/08/16 04:54:16;;;;;;;17.85;15.95;;;17.60;99.90;;;;;;5033340;28;20096;-51
2022/08/16 04:56:42;;;;;;;19.35;15.93;;;17.60;99.90;;;;;;5033344;28;20044;-47
2022/08/16 04:59:08;;;;;;;20.05;16.20;;;17.60;99.90;;;;;;5033448;28;20026;-44
2022/08/16 05:01:35;;;;;;;22.40;16.23;;;17.60;99.90;;;;;;5033383;28;20033;-43
2022/08/16 05:04:01;;;;;;;17.77;14.88;;;17.70;99.90;;;;;;5033276;28;20064;-49
2022/08/16 05:06:28;;;;;;;21.00;17.13;;;17.70;99.90;;;;;;5033416;28;20025;-48
2022/08/16 05:08:54;;;;;;;20.58;16.10;;;17.80;99.90;;;;;;5025073;28;20047;-49
2022/08/16 05:11:21;;;;;;;20.00;15.18;;;17.80;99.90;;;;;;5023682;28;20042;-53
2022/08/16 05:13:47;;;;;;;18.42;15.75;;;17.80;99.90;;;;;;5033257;28;20477;-53
2022/08/16 05:16:19;;;;;;;19.77;14.25;;;17.90;99.90;;;;;;5033093;28;20029;-50
2022/08/16 05:18:45;;;;;;;17.17;13.75;;;17.90;99.90;;;;;;5029753;28;20038;-45
2022/08/16 05:21:11;;;;;;;17.88;13.95;;;17.90;99.90;;;;;;5028002;28;20087;-52
2022/08/16 05:23:37;;;;;;;15.48;13.20;;;17.90;99.90;;;;;;5030071;28;20431;-55
2022/08/16 05:26:03;;;;;;;18.35;13.65;;;17.90;99.90;;;;;;5030138;28;20423;-45
2022/08/16 05:28:29;;;;;;;17.73;13.35;;;17.90;99.90;;;;;;5032368;28;20024;-44
2022/08/16 05:30:54;;;;;;;19.35;13.57;;;17.90;99.90;;;;;;5032413;28;20072;-45
2022/08/16 05:33:20;;;;;;;17.45;13.95;;;17.90;99.90;;;;;;5031003;28;20122;-44
2022/08/16 05:35:47;;;;;;;15.05;12.52;;;17.90;99.90;;;;;;5031180;28;20022;-44
2022/08/16 05:38:13;;;;;;;16.25;14.10;;;18.00;99.90;;;;;;5032862;28;20108;-45
2022/08/16 05:40:38;;;;;;;17.05;13.70;;;18.00;99.90;;;;;;5032662;28;20441;-44
2022/08/16 05:43:04;;;;;;;17.10;13.85;;;17.90;99.90;;;;;;5032636;28;20061;-49
2022/08/16 05:45:30;;;;;;;18.20;15.13;;;17.90;99.90;;;;;;5032380;28;20017;-48
2022/08/16 05:47:56;;;;;;;18.65;15.80;;;17.80;99.90;;;;;;5032578;28;20078;-45
2022/08/16 05:50:22;;;;;;;18.17;14.48;;;17.80;99.90;;;;;;5029918;28;20372;-43
2022/08/16 05:52:48;;;;;;;19.42;14.55;;;17.70;99.90;;;;;;5027103;28;20040;-47
2022/08/16 05:55:15;;;;;;;18.15;15.95;;;17.70;99.90;;;;;;5030112;28;20021;-48
2022/08/16 05:57:41;;;;;;;21.30;15.90;;;17.80;99.90;;;;;;5031531;28;20065;-51
2022/08/16 06:00:10;;;;;;;17.23;14.95;;;17.80;99.90;;;;;;5032107;28;20061;-47
2022/08/16 06:02:36;;;;;;;17.25;14.07;;;17.90;99.90;;;;;;5025920;28;20038;-46
2022/08/16 06:05:03;;;;;;;15.20;12.90;;;18.00;99.90;;;;;;5024949;28;20083;-43
2022/08/16 06:07:30;;;;;;;18.65;14.23;;;18.00;99.90;;;;;;5030785;28;20480;-46
2022/08/16 06:09:57;;;;;;;17.05;13.93;;;18.00;99.90;;;;;;5030535;28;20104;-52
2022/08/16 06:12:23;;;;;;;17.58;14.77;;;18.10;99.90;;;;;;5032298;28;20087;-51
2022/08/16 06:14:49;;;;;;;18.73;15.18;;;18.10;99.90;;;;;;5031419;28;20029;-47
2022/08/16 06:17:15;;;;;;;17.73;14.30;;;18.20;99.90;;;;;;5032110;28;20057;-50
2022/08/16 06:19:42;;;;;;;15.07;13.45;;;18.10;99.90;;;;;;5032092;28;20087;-45
2022/08/16 06:22:08;;;;;;;18.38;15.15;;;18.20;99.90;;;;;;5030733;28;20105;-48
2022/08/16 06:24:33;;;;;;;19.80;15.75;;;18.10;99.90;;;;;;5029792;28;20092;-48
2022/08/16 06:26:59;;;;;;;19.48;14.77;;;18.10;99.90;;;;;;5029326;28;20104;-50
2022/08/16 06:29:25;;;;;;;18.85;15.95;;;18.10;99.90;;;;;;5030260;28;20074;-47
2022/08/16 06:31:51;;;;;;;22.88;16.70;;;18.20;99.90;;;;;;5029877;28;20495;-45
2022/08/16 06:34:17;;;;;;;19.48;16.38;;;18.30;99.90;;;;;;5030018;28;20108;-44
2022/08/16 06:36:42;;;;;;;21.10;16.27;;;18.30;99.90;;;;;;5030650;28;20068;-47
2022/08/16 06:39:08;;;;;;;20.67;16.33;;;18.40;99.90;;;;;;5031605;28;20021;-45
2022/08/16 06:41:34;;;;;;;18.73;15.48;;;18.50;99.90;;;;;;5031668;28;20099;-54
2022/08/16 06:44:00;;;;;;;21.90;17.15;;;18.50;99.90;;;;;;5031235;28;20084;-47
2022/08/16 06:46:36;;;;;;;20.15;15.43;;;18.60;99.90;;;;;;5031053;28;20056;-46
2022/08/16 06:49:04;;;;;;;25.33;16.23;;;18.70;99.90;;;;;;5031264;28;20025;-50
2022/08/16 06:51:29;;;;;;;19.42;15.73;;;18.80;99.90;;;;;;5031227;28;20270;-45
2022/08/16 06:53:55;;;;;;;20.40;16.70;;;18.90;99.90;;;;;;5031043;28;20119;-45
2022/08/16 06:56:20;;;;;;;21.42;16.20;;;19.00;99.90;;;;;;5031120;28;20025;-43
2022/08/16 06:58:46;;;;;;;19.42;14.85;;;19.00;99.90;;;;;;5030857;28;20033;-43
2022/08/16 07:01:12;;;;;;;18.23;15.30;;;19.10;99.90;;;;;;5029327;28;20035;-47
2022/08/16 07:03:38;;;;;;;20.85;16.75;;;19.20;99.90;;;;;;5030850;28;20017;-51
2022/08/16 07:06:04;;;;;;;19.42;16.70;;;19.10;99.90;;;;;;5030602;28;20562;-46
2022/08/16 07:08:29;;;;;;;19.20;15.32;;;19.20;99.90;;;;;;5030382;28;20392;-44
2022/08/16 07:10:57;;;;;;;23.40;15.32;;;19.20;99.90;;;;;;5030273;28;20041;-52
2022/08/16 07:13:25;;;;;;;22.08;15.52;;;19.20;99.90;;;;;;5030792;28;20045;-47
2022/08/16 07:15:51;;;;;;;21.55;14.90;;;19.30;99.90;;;;;;5030951;28;20056;-54
2022/08/16 07:18:21;;;;;;;22.45;15.73;;;19.30;99.90;;;;;;5030556;28;20061;-47
2022/08/16 07:20:48;;;;;;;20.05;15.85;;;19.40;99.90;;;;;;5030599;28;20061;-46
2022/08/16 07:23:14;;;;;;;18.98;14.85;;;19.40;99.90;;;;;;5030994;28;20388;-43
2022/08/16 07:25:40;;;;;;;20.25;14.05;;;19.50;99.90;;;;;;5030511;28;20013;-43
2022/08/16 07:28:06;;;;;;;18.98;15.15;;;19.60;99.90;;;;;;5030658;28;20383;-44
2022/08/16 07:30:33;;;;;;;20.88;15.63;;;19.50;99.90;;;;;;5030701;28;20104;-47
2022/08/16 07:32:59;;;;;;;21.63;16.88;;;19.50;99.90;;;;;;5030902;28;20052;-43
2022/08/16 07:35:25;;;;;;;20.58;16.35;;;19.50;99.90;;;;;;5027725;28;20025;-45
2022/08/16 07:37:52;;;;;;;19.15;16.00;;;19.50;99.90;;;;;;5030881;28;20075;-43
2022/08/16 07:40:17;;;;;;;22.48;15.88;;;19.50;99.90;;;;;;5030643;28;20017;-52
2022/08/16 07:42:43;;;;;;;21.00;16.92;;;19.50;99.90;;;;;;5030770;28;20083;-51
2022/08/16 07:45:10;;;;;;;20.27;16.27;;;19.50;99.90;;;;;;5030939;28;20469;-48
2022/08/16 07:47:35;;;;;;;21.30;16.08;;;19.50;99.90;;;;;;5029455;28;20477;-50
2022/08/16 07:50:01;;;;;;;20.90;15.98;;;19.60;99.90;;;;;;5030331;28;20110;-46
2022/08/16 07:52:27;;;;;;;21.38;15.90;;;19.60;99.90;;;;;;5030319;28;20022;-52
2022/08/16 07:54:53;;;;;;;17.60;15.45;;;19.60;99.90;;;;;;5031071;28;20025;-46
2022/08/16 07:57:18;;;;;;;22.25;17.33;;;19.60;99.90;;;;;;5034657;28;20065;-44
2022/08/16 07:59:44;;;;;;;20.10;17.27;;;19.60;99.90;;;;;;5033950;28;20029;-43
2022/08/16 08:02:11;;;;;;;22.13;17.98;;;19.50;99.90;;;;;;5034329;28;20033;-47
2022/08/16 08:04:37;;;;;;;25.80;17.77;;;19.50;99.90;;;;;;5034580;28;20025;-44
2022/08/16 08:07:03;;;;;;;22.67;18.10;;;19.40;99.90;;;;;;5034299;28;20064;-44
2022/08/16 08:09:28;;;;;;;21.33;17.80;;;19.40;99.90;;;;;;5034264;28;20038;-45
2022/08/16 08:11:55;;;;;;;23.60;17.45;;;19.30;99.90;;;;;;5032991;28;20021;-45
2022/08/16 08:14:20;;;;;;;24.40;17.33;;;19.30;99.90;;;;;;5032571;28;20021;-45
2022/08/16 08:16:46;;;;;;;23.67;17.33;;;19.40;99.90;;;;;;5031272;28;20032;-53
2022/08/16 08:19:12;;;;;;;19.40;16.92;;;19.30;99.90;;;;;;5032685;28;20056;-45
2022/08/16 08:21:40;;;;;;;21.67;16.92;;;19.30;99.90;;;;;;5032214;28;20116;-47
2022/08/16 08:24:08;;;;;;;23.13;17.57;;;19.30;99.90;;;;;;5031877;28;20021;-49
2022/08/16 08:26:34;;;;;;;20.30;17.65;;;19.30;99.90;;;;;;5033953;28;20033;-51
2022/08/16 08:29:01;;;;;;;25.20;18.38;;;19.30;99.90;;;;;;5034071;28;20017;-46
2022/08/16 08:31:27;;;;;;;24.25;19.25;;;19.20;99.90;;;;;;5033828;28;20104;-51
2022/08/16 08:33:55;;;;;;;29.95;19.15;;;19.20;99.90;;;;;;5033916;28;20511;-46
2022/08/16 08:36:30;;;;;;;25.35;18.52;;;19.20;99.90;;;;;;5033968;28;20036;-48
2022/08/16 08:38:56;;;;;;;28.10;19.85;;;19.10;99.90;;;;;;5033788;28;20583;-47
2022/08/16 08:41:27;;;;;;;24.85;19.88;;;19.10;99.90;;;;;;5033126;28;20407;-55
2022/08/16 08:43:53;;;;;;;22.13;18.48;;;19.10;99.90;;;;;;5033826;28;20021;-53
2022/08/16 08:46:20;;;;;;;23.08;19.55;;;19.10;99.90;;;;;;5033953;28;20036;-48
2022/08/16 08:48:47;;;;;;;25.20;20.17;;;19.10;99.90;;;;;;5033166;28;20052;-54
2022/08/16 08:51:13;;;;;;;29.67;20.40;;;19.20;99.90;;;;;;5033399;28;20061;-50
2022/08/16 08:53:39;;;;;;;27.23;18.15;;;19.20;99.90;;;;;;5033622;28;20052;-52
2022/08/16 08:56:06;;;;;;;23.65;19.00;;;19.20;99.90;;;;;;5033806;28;20202;-49
2022/08/16 08:58:33;;;;;;;25.40;19.88;;;19.30;99.90;;;;;;5033770;28;20034;-50
2022/08/16 09:00:59;;;;;;;27.90;21.33;;;19.40;99.90;;;;;;5032946;28;20030;-46
2022/08/16 09:03:24;;;;;;;26.08;20.45;;;19.50;99.90;;;;;;5032925;28;20438;-52
2022/08/16 09:05:50;;;;;;;29.60;22.10;;;19.50;99.90;;;;;;5032228;28;20013;-52
2022/08/16 09:08:16;;;;;;;26.25;21.50;;;19.60;99.90;;;;;;5031365;28;20047;-50
2022/08/16 09:10:42;;;;;;;27.05;20.65;;;19.70;99.90;;;;;;5032197;28;20055;-46
2022/08/16 09:13:08;;;;;;;27.65;20.52;;;19.90;99.90;;;;;;5032589;28;20025;-49
2022/08/16 09:15:34;;;;;;;27.17;20.77;;;20.10;99.90;;;;;;5032510;28;20022;-46
2022/08/16 09:18:01;;;;;;;27.48;20.75;;;20.20;99.90;;;;;;5032475;28;20030;-45
2022/08/16 09:20:28;;;;;;;26.55;20.52;;;20.20;99.90;;;;;;5032362;28;20036;-50
2022/08/16 09:22:54;;;;;;;24.42;19.52;;;20.20;99.90;;;;;;5032790;28;20461;-48
2022/08/16 09:25:21;;;;;;;25.60;20.45;;;20.40;99.90;;;;;;5033108;28;20045;-47
2022/08/16 09:27:47;;;;;;;26.40;20.83;;;20.80;99.90;;;;;;5033020;28;20519;-47
2022/08/16 09:30:13;;;;;;;27.75;19.35;;;21.30;99.90;;;;;;5033074;28;20025;-45
2022/08/16 09:32:39;;;;;;;23.33;16.63;;;21.70;99.90;;;;;;5033028;28;20029;-42
2022/08/16 09:35:06;;;;;;;24.10;16.63;;;21.90;99.90;;;;;;5032853;28;20030;-44
2022/08/16 09:37:32;;;;;;;21.17;16.00;;;22.00;99.90;;;;;;5032872;28;20047;-44
2022/08/16 09:39:59;;;;;;;25.27;17.42;;;21.90;99.90;;;;;;5032978;28;20084;-44
2022/08/16 09:42:26;;;;;;;18.23;15.40;;;21.80;99.90;;;;;;5032728;28;20124;-44
2022/08/16 09:44:52;;;;;;;22.75;16.38;;;21.90;99.90;;;;;;5032975;28;20028;-44
2022/08/16 09:47:18;;;;;;;19.77;15.77;;;21.80;99.90;;;;;;5032345;28;20029;-44
2022/08/16 09:49:44;;;;;;;20.70;14.93;;;21.90;99.90;;;;;;5031641;28;20026;-43
2022/08/16 09:52:10;;;;;;;19.35;14.15;;;21.90;99.90;;;;;;5032584;28;20035;-49
2022/08/16 09:54:37;;;;;;;17.02;14.35;;;21.90;99.90;;;;;;5032580;28;20503;-47
2022/08/16 09:57:03;;;;;;;22.20;14.32;;;22.00;99.90;;;;;;5031453;28;20025;-42
2022/08/16 09:59:30;;;;;;;16.75;13.35;;;22.00;99.90;;;;;;5032222;28;20384;-44
2022/08/16 10:01:56;;;;;;;16.98;14.43;;;21.90;99.90;;;;;;5031823;28;20033;-45
2022/08/16 10:04:24;;;;;;;15.80;13.10;;;21.80;99.90;;;;;;5028648;28;20026;-50
2022/08/16 10:06:50;;;;;;;18.60;14.43;;;21.70;99.90;;;;;;5031643;28;20037;-43
2022/08/16 10:09:16;;;;;;;18.95;14.23;;;21.70;99.90;;;;;;5032054;28;20037;-49
2022/08/16 10:14:30;;;;;;;16.45;14.20;;;21.40;99.90;;;;;;5032606;28;20416;-48
2022/08/16 10:17:01;;;;;;;13.75;11.15;;;21.20;99.90;;;;;;5032130;28;20026;-48
2022/08/16 10:19:28;;;;;;;13.73;11.05;;;21.10;99.90;;;;;;5031500;28;20606;-46
2022/08/16 10:21:54;;;;;;;12.50;10.63;;;20.80;99.90;;;;;;5031858;28;20029;-45
2022/08/16 10:24:21;;;;;;;14.57;11.27;;;20.70;99.90;;;;;;5031976;28;20075;-45
2022/08/16 10:26:46;;;;;;;13.95;11.35;;;20.40;99.90;;;;;;5030816;28;20028;-47
2022/08/16 10:29:13;;;;;;;14.00;12.02;;;20.30;99.90;;;;;;5031457;28;20014;-46
2022/08/16 10:31:39;;;;;;;13.80;12.30;;;20.20;99.90;;;;;;5028052;28;20029;-46
2022/08/16 10:34:05;;;;;;;18.15;12.98;;;20.20;99.90;;;;;;5030115;28;20396;-49
2022/08/16 10:36:30;;;;;;;15.38;13.77;;;20.30;99.90;;;;;;5028917;28;20026;-45
2022/08/16 10:38:56;;;;;;;17.73;13.50;;;20.70;99.90;;;;;;5030214;28;20029;-45
2022/08/16 10:41:22;;;;;;;16.77;13.05;;;21.20;99.90;;;;;;5029119;28;20076;-45
2022/08/16 10:43:49;;;;;;;13.23;10.93;;;21.50;99.90;;;;;;5030971;28;20104;-47
2022/08/16 10:46:15;;;;;;;14.85;11.38;;;21.80;99.90;;;;;;5030971;28;20067;-45
2022/08/16 10:48:44;;;;;;;13.07;10.23;;;22.10;99.90;;;;;;5030563;28;20615;-47
2022/08/16 10:51:10;;;;;;;13.00;9.32;;;22.30;99.90;;;;;;5030711;28;20036;-47
2022/08/16 10:53:36;;;;;;;12.75;9.55;;;22.50;99.90;;;;;;5031379;28;20017;-51
2022/08/16 10:56:05;;;;;;;12.00;9.35;;;22.80;99.90;;;;;;5031489;28;20029;-46
2022/08/16 10:58:32;;;;;;;13.40;9.83;;;23.00;99.90;;;;;;5021052;28;20035;-46
2022/08/16 11:00:58;;;;;;;11.27;8.88;;;23.10;99.90;;;;;;5031243;28;20069;-48
2022/08/16 11:03:27;;;;;;;11.02;8.90;;;23.30;99.90;;;;;;5031272;28;20025;-45
2022/08/16 11:05:53;;;;;;;12.45;9.48;;;23.50;99.90;;;;;;5031186;28;20512;-47
2022/08/16 11:08:21;;;;;;;8.88;7.43;;;23.50;99.90;;;;;;5031176;28;20393;-49
2022/08/16 11:10:47;;;;;;;10.02;8.40;;;23.70;99.90;;;;;;5030747;28;20060;-45
2022/08/16 11:13:24;;;;;;;10.43;8.30;;;23.70;99.90;;;;;;5027011;28;20030;-48
2022/08/16 11:15:51;;;;;;;11.43;8.48;;;23.50;99.90;;;;;;5027892;28;20025;-47
2022/08/16 11:18:16;;;;;;;11.95;8.50;;;23.50;99.90;;;;;;5029739;28;20030;-49
2022/08/16 11:20:43;;;;;;;9.68;6.90;;;23.50;99.90;;;;;;5030116;28;20017;-48
2022/08/16 11:23:10;;;;;;;8.57;6.63;;;23.60;99.90;;;;;;5029926;28;20031;-43
2022/08/16 11:25:37;;;;;;;9.32;7.47;;;23.70;99.90;;;;;;5029833;28;20538;-45
2022/08/16 11:28:04;;;;;;;9.20;6.85;;;23.60;99.90;;;;;;5027979;28;20412;-49
2022/08/16 11:30:31;;;;;;;10.30;6.82;;;23.70;99.90;;;;;;5028917;28;20033;-47
2022/08/16 11:32:56;;;;;;;8.40;6.40;;;23.60;99.90;;;;;;5029859;28;20400;-48
2022/08/16 11:35:25;;;;;;;10.35;6.47;;;23.60;99.90;;;;;;5026617;28;20021;-43
2022/08/16 11:38:07;;;;;;;8.70;5.97;;;23.60;99.90;;;;;;5029556;28;20025;-45
2022/08/16 11:40:45;;;;;;;6.80;4.90;;;23.90;99.90;;;;;;5029169;28;20026;-44
2022/08/16 11:43:13;;;;;;;7.40;4.57;;;24.00;99.90;;;;;;5027154;28;20029;-52
2022/08/16 11:45:39;;;;;;;7.47;4.93;;;24.10;99.40;;;;;;5029258;28;20030;-48
2022/08/16 11:48:05;;;;;;;7.72;4.85;;;24.30;99.40;;;;;;5029249;28;20435;-54
2022/08/16 11:50:32;;;;;;;6.35;4.60;;;24.60;99.90;;;;;;5029160;28;20037;-51
2022/08/16 11:52:59;;;;;;;7.55;4.70;;;24.90;97.80;;;;;;5029347;28;20041;-45
2022/08/16 11:55:25;;;;;;;5.55;4.50;;;24.90;97.60;;;;;;5027091;28;20537;-48
2022/08/16 11:57:51;;;;;;;5.47;4.70;;;24.90;98.20;;;;;;5029554;28;20029;-43
2022/08/16 12:00:17;;;;;;;6.30;4.75;;;24.80;97.00;;;;;;5029636;28;20022;-46
2022/08/16 12:02:43;;;;;;;6.93;5.10;;;24.50;97.30;;;;;;5029388;28;20030;-45
2022/08/16 12:05:13;;;;;;;6.60;4.60;;;24.20;98.60;;;;;;5029108;28;20049;-49
2022/08/16 12:07:39;;;;;;;7.55;4.88;;;24.00;99.10;;;;;;5029298;28;20033;-48
2022/08/16 12:10:11;;;;;;;5.10;4.40;;;24.00;99.20;;;;;;5029235;28;20046;-43
2022/08/16 12:12:37;;;;;;;5.82;4.03;;;23.90;99.60;;;;;;5026969;28;20083;-45
2022/08/16 12:15:04;;;;;;;5.07;4.15;;;23.90;99.70;;;;;;5028932;28;20026;-42
2022/08/16 12:17:30;;;;;;;5.18;4.13;;;23.70;99.00;;;;;;5029811;28;20030;-45
2022/08/16 12:19:57;;;;;;;5.05;4.15;;;23.80;99.20;;;;;;5029799;28;20030;-51
2022/08/16 12:22:23;;;;;;;6.78;3.80;;;24.00;99.90;;;;;;5029699;28;20099;-44
2022/08/16 12:24:50;;;;;;;5.15;3.97;;;23.80;97.40;;;;;;5030412;28;20485;-51
2022/08/16 12:27:15;;;;;;;4.35;3.75;;;23.70;98.00;;;;;;5030046;28;20037;-47
2022/08/16 12:29:42;;;;;;;7.60;4.32;;;23.70;98.70;;;;;;5030510;28;20025;-49
2022/08/16 12:32:07;;;;;;;5.78;4.53;;;23.70;99.30;;;;;;5030480;28;20025;-45